Time;durP1;ratioP1;P1;durP2;ratioP2;P2;SDS_P1;SDS_P2;PMS_P1;PMS_P2;Temp;Humidity;BMP_temperature;BMP_pressure;BME280_temperature;BME280_humidity;BME280_pressure;Samples;Min_cycle;Max_cycle;Signal;HPM_P1;HPM_P2
2023/08/29 00:00:51;;;;;;;3.45;0.73;;;19.60;50.80;;;;;;7567344;23;20328;-73
2023/08/29 00:03:55;;;;;;;1.08;0.40;;;19.60;50.80;;;;;;7567633;23;20010;-75
2023/08/29 00:06:55;;;;;;;0.43;0.40;;;19.60;50.60;;;;;;7593575;23;20029;-74
2023/08/29 00:09:56;;;;;;;0.73;0.50;;;19.60;50.70;;;;;;7593502;23;20024;-75
2023/08/29 00:12:57;;;;;;;0.95;0.60;;;19.50;50.90;;;;;;7593750;23;20053;-74
2023/08/29 00:15:58;;;;;;;0.20;0.20;;;19.50;51.00;;;;;;7593682;23;20010;-73
2023/08/29 00:18:59;;;;;;;1.02;0.55;;;19.50;51.00;;;;;;7593328;23;20086;-73
2023/08/29 00:22:00;;;;;;;7.88;0.70;;;19.50;50.90;;;;;;7593544;23;20021;-73
2023/08/29 00:25:01;;;;;;;0.65;0.32;;;19.50;50.90;;;;;;7593975;23;20380;-74
2023/08/29 00:28:03;;;;;;;1.30;0.40;;;19.50;50.70;;;;;;7593892;23;20009;-73
2023/08/29 00:31:05;;;;;;;1.27;0.45;;;19.50;50.60;;;;;;7593391;23;20006;-73
2023/08/29 00:34:06;;;;;;;1.13;0.80;;;19.60;50.80;;;;;;7567540;23;20460;-74
2023/08/29 00:37:08;;;;;;;1.52;0.77;;;19.50;50.90;;;;;;7566735;23;20006;-75
2023/08/29 00:40:10;;;;;;;1.10;0.60;;;19.50;51.10;;;;;;7567424;23;20124;-74
2023/08/29 00:43:11;;;;;;;0.55;0.20;;;19.40;51.30;;;;;;7566961;23;20451;-74
2023/08/29 00:46:12;;;;;;;0.57;0.40;;;19.40;51.40;;;;;;7593248;23;20111;-75
2023/08/29 00:49:17;;;;;;;0.50;0.43;;;19.30;51.40;;;;;;7593051;23;20371;-74
2023/08/29 00:52:18;;;;;;;1.42;0.70;;;19.30;52.00;;;;;;7593553;23;20478;-73
2023/08/29 00:55:20;;;;;;;1.17;0.60;;;19.30;51.50;;;;;;7593437;23;20014;-72
2023/08/29 00:58:21;;;;;;;0.35;0.35;;;19.30;51.50;;;;;;7567296;23;20298;-74
2023/08/29 01:01:22;;;;;;;0.82;0.50;;;19.30;51.50;;;;;;7566766;23;20380;-73
2023/08/29 01:04:22;;;;;;;0.38;0.38;;;19.30;51.70;;;;;;7566422;23;20108;-75
2023/08/29 01:07:23;;;;;;;1.75;0.57;;;19.30;51.70;;;;;;7592841;23;20017;-74
2023/08/29 01:10:36;;;;;;;1.38;0.40;;;19.30;51.70;;;;;;7565647;23;20024;-74
2023/08/29 01:14:00;;;;;;;3.08;0.90;;;19.20;51.70;;;;;;7593092;23;20566;-74
2023/08/29 01:17:30;;;;;;;0.65;0.35;;;19.20;51.60;;;;;;7566312;23;20018;-74
2023/08/29 01:20:33;;;;;;;2.72;0.60;;;19.30;51.50;;;;;;7592699;23;20006;-74
2023/08/29 01:23:40;;;;;;;1.05;0.57;;;19.30;51.40;;;;;;7593021;23;20033;-74
2023/08/29 01:26:44;;;;;;;4.82;0.70;;;19.30;51.40;;;;;;7566489;23;20420;-74
2023/08/29 01:29:46;;;;;;;0.77;0.50;;;19.30;51.40;;;;;;7565469;23;20018;-74
2023/08/29 01:32:47;;;;;;;0.45;0.32;;;19.30;51.30;;;;;;7566237;23;20013;-73
2023/08/29 01:35:48;;;;;;;0.77;0.50;;;19.30;51.30;;;;;;7565758;23;20014;-73
2023/08/29 01:38:48;;;;;;;0.40;0.40;;;19.30;51.10;;;;;;7566243;23;20025;-74
2023/08/29 01:41:49;;;;;;;0.75;0.50;;;19.30;51.30;;;;;;7592139;23;20017;-74
2023/08/29 01:44:50;;;;;;;0.80;0.47;;;19.30;51.30;;;;;;7565872;23;20125;-75
2023/08/29 01:47:51;;;;;;;0.65;0.50;;;19.30;51.30;;;;;;7566271;23;20020;-74
2023/08/29 01:50:52;;;;;;;0.50;0.50;;;19.30;51.10;;;;;;7565395;23;20147;-74
2023/08/29 01:53:53;;;;;;;1.27;0.40;;;19.30;51.10;;;;;;7542013;23;20045;-73
2023/08/29 01:56:58;;;;;;;1.23;0.50;;;19.30;51.10;;;;;;7565705;23;20418;-74
2023/08/29 02:00:00;;;;;;;0.60;0.50;;;19.30;51.70;;;;;;7566145;23;20790;-75
2023/08/29 02:03:01;;;;;;;0.65;0.50;;;19.30;51.00;;;;;;7589744;23;20082;-73
2023/08/29 02:06:03;;;;;;;1.75;0.63;;;19.30;50.90;;;;;;7565276;23;20033;-74
2023/08/29 02:09:04;;;;;;;0.57;0.40;;;19.30;51.40;;;;;;7565620;23;20017;-74
2023/08/29 02:12:04;;;;;;;1.65;0.55;;;19.30;50.50;;;;;;7592286;23;20152;-74
2023/08/29 02:15:06;;;;;;;0.95;0.70;;;19.30;50.30;;;;;;7541827;23;20462;-74
2023/08/29 02:18:08;;;;;;;0.85;0.55;;;19.30;50.30;;;;;;7566488;23;20033;-75
2023/08/29 02:21:12;;;;;;;1.02;0.40;;;19.30;50.20;;;;;;7565061;23;20022;-74
2023/08/29 02:24:12;;;;;;;0.95;0.60;;;19.30;50.20;;;;;;7592337;23;20267;-75
2023/08/29 02:27:14;;;;;;;1.38;0.38;;;19.30;50.10;;;;;;7565450;23;20009;-74
2023/08/29 02:30:14;;;;;;;0.40;0.40;;;19.30;49.90;;;;;;7564728;23;20037;-73
2023/08/29 02:33:15;;;;;;;0.38;0.30;;;19.40;49.90;;;;;;7564988;23;20158;-73
2023/08/29 02:36:16;;;;;;;0.30;0.30;;;19.40;49.70;;;;;;7591940;23;20084;-74
2023/08/29 02:39:18;;;;;;;0.50;0.40;;;19.40;49.60;;;;;;7565774;23;20068;-74
2023/08/29 02:42:19;;;;;;;0.90;0.40;;;19.40;49.60;;;;;;7565603;23;20319;-73
2023/08/29 02:45:20;;;;;;;3.15;0.85;;;19.40;49.60;;;;;;7565884;23;20009;-73
2023/08/29 02:48:20;;;;;;;0.60;0.40;;;19.40;49.60;;;;;;7541721;23;20450;-73
2023/08/29 02:51:21;;;;;;;0.93;0.40;;;19.40;49.60;;;;;;7565444;23;20383;-75
2023/08/29 02:54:22;;;;;;;3.28;0.52;;;19.30;49.70;;;;;;7592057;23;20415;-73
2023/08/29 02:57:23;;;;;;;0.73;0.60;;;19.40;49.70;;;;;;7591575;23;20406;-73
2023/08/29 03:00:24;;;;;;;1.25;0.50;;;19.40;49.70;;;;;;7565114;23;20014;-73
2023/08/29 03:03:26;;;;;;;0.47;0.40;;;19.30;49.70;;;;;;7592287;23;20042;-74
2023/08/29 03:06:27;;;;;;;0.82;0.57;;;19.30;49.80;;;;;;7591425;23;20061;-74
2023/08/29 03:09:28;;;;;;;0.32;0.32;;;19.30;49.80;;;;;;7591069;23;20040;-74
2023/08/29 03:12:29;;;;;;;0.65;0.40;;;19.30;49.70;;;;;;7565258;23;20053;-74
2023/08/29 03:15:33;;;;;;;2.05;0.70;;;19.30;49.60;;;;;;7541438;23;20010;-73
2023/08/29 03:18:34;;;;;;;0.68;0.43;;;19.30;49.60;;;;;;7565432;23;20108;-74
2023/08/29 03:21:35;;;;;;;1.50;0.70;;;19.30;49.60;;;;;;7565852;23;20124;-73
2023/08/29 03:24:36;;;;;;;3.58;0.63;;;19.30;49.60;;;;;;7567221;23;20363;-77
2023/08/29 03:27:37;;;;;;;1.33;0.75;;;19.30;49.60;;;;;;7593400;23;20017;-76
2023/08/29 03:30:38;;;;;;;0.50;0.40;;;19.20;50.20;;;;;;7566200;23;20018;-76
2023/08/29 03:33:40;;;;;;;1.30;0.50;;;19.20;49.60;;;;;;7568179;23;20113;-76
2023/08/29 03:36:41;;;;;;;0.32;0.30;;;19.30;49.70;;;;;;7596918;23;20432;-78
2023/08/29 03:39:42;;;;;;;0.40;0.30;;;19.30;49.60;;;;;;7596301;23;20133;-75
2023/08/29 03:42:43;;;;;;;0.68;0.40;;;19.20;49.60;;;;;;7596446;23;20010;-77
2023/08/29 03:45:43;;;;;;;3.70;0.63;;;19.30;49.70;;;;;;7595600;23;20766;-76
2023/08/29 03:48:44;;;;;;;0.52;0.47;;;19.30;49.80;;;;;;7568622;23;20021;-75
2023/08/29 03:51:45;;;;;;;4.78;0.57;;;19.30;49.90;;;;;;7567421;23;20010;-71
2023/08/29 03:54:47;;;;;;;1.05;0.68;;;19.20;50.10;;;;;;7568056;23;20010;-74
2023/08/29 03:57:47;;;;;;;0.30;0.30;;;19.20;50.20;;;;;;7543868;23;20010;-75
2023/08/29 04:00:48;;;;;;;0.65;0.50;;;19.20;50.20;;;;;;7593502;23;20021;-73
2023/08/29 04:03:51;;;;;;;3.95;0.77;;;19.20;50.20;;;;;;7567042;23;20072;-74
2023/08/29 04:06:53;;;;;;;1.35;0.55;;;19.20;50.30;;;;;;7567478;23;20108;-74
2023/08/29 04:09:53;;;;;;;6.57;0.90;;;19.20;50.20;;;;;;7593268;23;20041;-73
2023/08/29 04:12:54;;;;;;;0.40;0.40;;;19.20;50.10;;;;;;7567145;23;20096;-71
2023/08/29 04:16:04;;;;;;;0.45;0.45;;;19.20;50.10;;;;;;7567000;23;20010;-73
2023/08/29 04:19:04;;;;;;;2.20;0.38;;;19.20;50.20;;;;;;7565310;23;20018;-74
2023/08/29 04:22:05;;;;;;;1.02;0.60;;;19.20;50.30;;;;;;7592208;23;20006;-74
2023/08/29 04:25:06;;;;;;;3.50;0.45;;;19.20;50.30;;;;;;7542504;23;20704;-73
2023/08/29 04:28:07;;;;;;;5.85;0.70;;;19.20;50.30;;;;;;7565959;23;20010;-72
2023/08/29 04:31:09;;;;;;;1.10;0.85;;;19.20;50.30;;;;;;7592360;23;20006;-75
2023/08/29 04:34:10;;;;;;;0.60;0.35;;;19.20;50.20;;;;;;7566987;23;20017;-73
2023/08/29 04:37:11;;;;;;;1.00;0.60;;;19.20;50.20;;;;;;7593016;23;20016;-73
2023/08/29 04:40:13;;;;;;;0.38;0.30;;;19.20;50.10;;;;;;7566696;23;20507;-74
2023/08/29 04:43:14;;;;;;;0.80;0.35;;;19.20;50.00;;;;;;7543297;23;20108;-73
2023/08/29 04:46:15;;;;;;;0.80;0.40;;;19.20;50.00;;;;;;7566479;23;20105;-74
2023/08/29 04:49:15;;;;;;;1.98;0.75;;;19.20;50.10;;;;;;7566452;23;20017;-74
2023/08/29 04:52:16;;;;;;;1.30;0.45;;;19.20;50.20;;;;;;7542702;23;20029;-73
2023/08/29 04:55:17;;;;;;;0.70;0.43;;;19.20;50.10;;;;;;7592973;23;20017;-74
2023/08/29 04:58:18;;;;;;;2.75;0.50;;;19.10;50.10;;;;;;7566614;23;20014;-75
2023/08/29 05:01:19;;;;;;;1.65;0.40;;;19.10;50.20;;;;;;7566550;23;20490;-74
2023/08/29 05:04:20;;;;;;;0.43;0.40;;;19.10;50.40;;;;;;7565843;23;20024;-75
2023/08/29 05:07:21;;;;;;;0.68;0.30;;;19.10;50.50;;;;;;7593183;23;20013;-74
2023/08/29 05:10:22;;;;;;;1.35;0.50;;;19.10;50.40;;;;;;7565554;23;20014;-74
2023/08/29 05:13:23;;;;;;;0.35;0.35;;;19.10;50.30;;;;;;7567445;23;20094;-73
2023/08/29 05:16:23;;;;;;;2.03;0.60;;;19.10;50.10;;;;;;7566775;23;20021;-74
2023/08/29 05:19:24;;;;;;;1.60;0.45;;;19.20;50.00;;;;;;7566503;23;20482;-74
2023/08/29 05:22:25;;;;;;;1.58;0.45;;;19.20;49.90;;;;;;7592291;23;20014;-75
2023/08/29 05:25:26;;;;;;;1.20;0.50;;;19.20;50.50;;;;;;7566315;23;20478;-74
2023/08/29 05:28:27;;;;;;;0.52;0.40;;;19.20;49.70;;;;;;7566481;23;20320;-74
2023/08/29 05:31:28;;;;;;;0.50;0.50;;;19.20;49.60;;;;;;7592215;23;20002;-74
2023/08/29 05:34:29;;;;;;;2.72;0.63;;;19.20;49.60;;;;;;7593308;23;20651;-74
2023/08/29 05:37:30;;;;;;;1.80;0.82;;;19.20;49.80;;;;;;7594139;23;20006;-74
2023/08/29 05:40:30;;;;;;;1.50;0.50;;;19.20;49.80;;;;;;7566366;23;20016;-76
2023/08/29 05:43:31;;;;;;;0.63;0.40;;;19.20;49.80;;;;;;7567081;23;20014;-75
2023/08/29 05:46:35;;;;;;;0.88;0.65;;;19.20;49.80;;;;;;7592716;23;20017;-75
2023/08/29 05:49:36;;;;;;;2.33;0.57;;;19.20;50.00;;;;;;7592668;23;20006;-75
2023/08/29 05:52:37;;;;;;;0.63;0.63;;;19.20;49.90;;;;;;7593128;23;20743;-75
2023/08/29 05:55:38;;;;;;;0.88;0.50;;;19.30;49.90;;;;;;7591912;23;20006;-76
2023/08/29 05:58:39;;;;;;;0.90;0.50;;;19.30;49.70;;;;;;7565510;23;20017;-75
2023/08/29 06:01:39;;;;;;;1.65;0.63;;;19.40;49.50;;;;;;7591743;23;20017;-74
2023/08/29 06:04:40;;;;;;;6.43;0.35;;;19.40;49.40;;;;;;7591627;23;20014;-75
2023/08/29 06:07:41;;;;;;;1.27;0.50;;;19.50;49.30;;;;;;7592170;23;20013;-75
2023/08/29 06:10:42;;;;;;;0.90;0.43;;;19.50;49.30;;;;;;7565821;23;20399;-76
2023/08/29 06:13:43;;;;;;;1.00;0.57;;;19.50;49.20;;;;;;7591717;23;20012;-73
2023/08/29 06:16:44;;;;;;;2.38;0.95;;;19.60;49.10;;;;;;7591496;23;20006;-74
2023/08/29 06:19:45;;;;;;;0.90;0.60;;;19.50;49.00;;;;;;7566319;23;20076;-75
2023/08/29 06:22:46;;;;;;;1.77;0.55;;;19.50;49.00;;;;;;7565778;23;20097;-75
2023/08/29 06:25:48;;;;;;;0.65;0.50;;;19.50;49.00;;;;;;7541897;23;20037;-75
2023/08/29 06:28:49;;;;;;;0.70;0.40;;;19.60;49.00;;;;;;7591530;23;20435;-75
2023/08/29 06:31:50;;;;;;;1.02;0.52;;;19.60;49.00;;;;;;7591730;23;20012;-73
2023/08/29 06:34:51;;;;;;;0.95;0.50;;;19.50;49.00;;;;;;7591806;23;20081;-74
2023/08/29 06:37:55;;;;;;;0.68;0.32;;;19.40;49.00;;;;;;7591887;23;20618;-75
2023/08/29 06:40:57;;;;;;;0.85;0.70;;;19.40;49.10;;;;;;7591522;23;20029;-74
2023/08/29 06:43:58;;;;;;;1.77;0.70;;;19.50;49.00;;;;;;7590870;23;20086;-75
2023/08/29 06:46:59;;;;;;;0.60;0.60;;;19.50;49.00;;;;;;7565283;23;20533;-74
2023/08/29 06:50:00;;;;;;;1.45;0.40;;;19.50;49.00;;;;;;7541640;23;20318;-74
2023/08/29 06:53:01;;;;;;;0.90;0.50;;;19.50;48.90;;;;;;7592124;23;20006;-75
2023/08/29 06:56:02;;;;;;;2.38;0.65;;;19.50;49.00;;;;;;7565786;23;20032;-75
2023/08/29 06:59:03;;;;;;;1.00;0.38;;;19.50;49.20;;;;;;7542253;23;20009;-75
2023/08/29 07:02:04;;;;;;;1.58;0.50;;;19.50;49.20;;;;;;7565239;23;20428;-75
2023/08/29 07:05:05;;;;;;;0.60;0.50;;;19.50;49.10;;;;;;7565173;23;20089;-74
2023/08/29 07:08:06;;;;;;;0.85;0.50;;;19.60;49.00;;;;;;7541206;23;20018;-75
2023/08/29 07:11:07;;;;;;;0.75;0.50;;;19.60;49.50;;;;;;7591714;23;20002;-75
2023/08/29 07:14:08;;;;;;;1.30;0.60;;;19.60;48.90;;;;;;7564781;23;20006;-75
2023/08/29 07:17:09;;;;;;;1.50;0.47;;;19.60;48.80;;;;;;7591407;23;20396;-75
2023/08/29 07:20:10;;;;;;;4.18;0.63;;;19.70;48.80;;;;;;7591455;23;20339;-74
2023/08/29 07:23:11;;;;;;;1.65;0.70;;;19.70;48.60;;;;;;7591463;23;20045;-74
2023/08/29 07:26:12;;;;;;;1.38;0.60;;;19.80;48.50;;;;;;7591208;23;20169;-74
2023/08/29 07:29:13;;;;;;;0.57;0.55;;;19.90;48.40;;;;;;7564584;23;20006;-74
2023/08/29 07:32:14;;;;;;;0.47;0.35;;;20.00;48.30;;;;;;7590799;23;20010;-74
2023/08/29 07:35:16;;;;;;;0.95;0.50;;;20.10;48.10;;;;;;7564856;23;20415;-73
2023/08/29 07:38:17;;;;;;;2.35;0.60;;;20.20;48.00;;;;;;7591697;23;20009;-76
2023/08/29 07:41:18;;;;;;;0.55;0.47;;;20.40;48.00;;;;;;7591041;23;20010;-75
2023/08/29 07:44:19;;;;;;;2.30;0.80;;;20.50;47.80;;;;;;7591377;23;20013;-74
2023/08/29 07:47:20;;;;;;;0.38;0.38;;;20.70;47.60;;;;;;7564508;23;20010;-75
2023/08/29 07:50:21;;;;;;;0.95;0.45;;;20.80;47.50;;;;;;7591146;23;20080;-75
2023/08/29 07:53:22;;;;;;;0.85;0.70;;;20.80;47.30;;;;;;7590735;23;20002;-75
2023/08/29 07:56:22;;;;;;;0.47;0.40;;;20.80;47.20;;;;;;7591502;23;20050;-74
2023/08/29 07:59:23;;;;;;;4.30;0.60;;;20.90;47.20;;;;;;7590590;23;20689;-75
2023/08/29 08:02:24;;;;;;;3.13;0.52;;;20.90;47.20;;;;;;7591174;23;20013;-76
2023/08/29 08:05:26;;;;;;;2.03;0.65;;;20.90;47.10;;;;;;7564097;23;20439;-76
2023/08/29 08:08:26;;;;;;;2.03;0.60;;;20.90;47.10;;;;;;7564385;23;20069;-74
2023/08/29 08:11:27;;;;;;;1.17;0.40;;;20.90;46.80;;;;;;7591604;23;20010;-76
2023/08/29 08:14:28;;;;;;;1.30;0.60;;;20.90;46.90;;;;;;7566542;23;20002;-75
2023/08/29 08:17:29;;;;;;;0.47;0.40;;;20.90;46.90;;;;;;7565335;23;20025;-74
2023/08/29 08:20:30;;;;;;;0.68;0.50;;;20.80;46.80;;;;;;7566044;23;20028;-74
2023/08/29 08:23:31;;;;;;;1.83;0.77;;;20.80;46.90;;;;;;7543545;23;20018;-76
2023/08/29 08:26:32;;;;;;;2.25;0.60;;;20.80;47.00;;;;;;7593706;23;20082;-76
2023/08/29 08:29:33;;;;;;;0.90;0.50;;;20.90;46.90;;;;;;7567317;23;20006;-76
2023/08/29 08:32:34;;;;;;;0.70;0.57;;;21.10;46.80;;;;;;7567458;23;20026;-75
2023/08/29 08:35:35;;;;;;;1.15;0.57;;;21.10;46.50;;;;;;7567229;23;20014;-76
2023/08/29 08:38:36;;;;;;;2.78;0.93;;;21.10;46.50;;;;;;7592845;23;20025;-75
2023/08/29 08:41:38;;;;;;;1.88;0.68;;;21.20;46.60;;;;;;7592761;23;20288;-77
2023/08/29 08:44:39;;;;;;;0.80;0.80;;;21.30;46.50;;;;;;7593510;23;20041;-77
2023/08/29 08:47:41;;;;;;;1.20;0.57;;;21.30;46.30;;;;;;7593119;23;20152;-74
2023/08/29 08:50:45;;;;;;;0.95;0.65;;;21.30;46.10;;;;;;7566671;23;20111;-74
2023/08/29 08:53:46;;;;;;;1.30;0.52;;;21.30;46.00;;;;;;7566592;23;20010;-76
2023/08/29 08:56:48;;;;;;;0.40;0.40;;;21.30;46.00;;;;;;7593518;23;20069;-75
2023/08/29 08:59:49;;;;;;;1.45;0.38;;;21.40;45.80;;;;;;7592537;23;20010;-75
2023/08/29 09:02:51;;;;;;;3.53;0.70;;;21.50;45.80;;;;;;7592657;23;20042;-75
2023/08/29 09:05:51;;;;;;;0.50;0.50;;;21.60;45.60;;;;;;7565236;23;20028;-75
2023/08/29 09:08:56;;;;;;;2.22;0.73;;;21.80;45.30;;;;;;7592298;23;20014;-75
2023/08/29 09:11:57;;;;;;;6.00;0.77;;;21.90;45.20;;;;;;7592067;23;20079;-74
2023/08/29 09:15:04;;;;;;;0.45;0.35;;;22.00;45.00;;;;;;7592489;23;20005;-75
2023/08/29 09:18:06;;;;;;;0.90;0.38;;;22.00;45.40;;;;;;7591831;23;20435;-74
2023/08/29 09:21:18;;;;;;;1.10;0.50;;;22.00;44.80;;;;;;7591973;23;20086;-75
2023/08/29 09:24:35;;;;;;;1.80;0.90;;;22.10;44.50;;;;;;7592413;23;20010;-75
2023/08/29 09:27:45;;;;;;;1.50;0.75;;;22.20;44.40;;;;;;7592244;23;20002;-75
2023/08/29 09:30:46;;;;;;;1.60;0.43;;;22.20;44.40;;;;;;7591986;23;20017;-75
2023/08/29 09:33:48;;;;;;;0.65;0.40;;;22.30;44.30;;;;;;7592671;23;20355;-75
2023/08/29 09:36:49;;;;;;;0.65;0.57;;;22.30;44.20;;;;;;7541582;23;20018;-75
2023/08/29 09:39:53;;;;;;;0.57;0.52;;;22.40;43.90;;;;;;7565779;23;20018;-75
2023/08/29 09:43:02;;;;;;;1.30;0.52;;;22.40;43.80;;;;;;7565299;23;20045;-75
2023/08/29 09:46:03;;;;;;;2.65;0.80;;;22.30;43.70;;;;;;7589652;23;20014;-75
2023/08/29 09:49:04;;;;;;;1.45;0.43;;;22.30;43.90;;;;;;7592120;23;20092;-73
2023/08/29 09:52:06;;;;;;;0.55;0.38;;;22.30;43.80;;;;;;7565327;23;20010;-74
2023/08/29 09:55:11;;;;;;;3.47;0.90;;;22.20;43.90;;;;;;7592020;23;20001;-75
2023/08/29 09:58:15;;;;;;;2.55;0.45;;;22.10;44.30;;;;;;7565410;23;20119;-75
2023/08/29 10:01:16;;;;;;;1.10;0.55;;;22.00;44.10;;;;;;7564994;23;20040;-74
2023/08/29 10:04:20;;;;;;;0.80;0.38;;;22.00;44.00;;;;;;7564741;23;20181;-74
2023/08/29 10:07:26;;;;;;;0.95;0.60;;;21.90;44.10;;;;;;7565604;23;20060;-73
2023/08/29 10:10:27;;;;;;;0.88;0.50;;;21.90;44.40;;;;;;7591653;23;20010;-75
2023/08/29 10:13:28;;;;;;;1.20;0.52;;;21.80;44.50;;;;;;7565858;23;20016;-76
2023/08/29 10:16:30;;;;;;;0.55;0.52;;;21.80;44.60;;;;;;7565130;23;20010;-75
2023/08/29 10:19:32;;;;;;;0.98;0.70;;;21.80;44.80;;;;;;7591906;23;20088;-77
2023/08/29 10:22:33;;;;;;;0.57;0.47;;;21.80;44.80;;;;;;7591987;23;20010;-74
2023/08/29 10:25:36;;;;;;;0.73;0.60;;;21.80;44.60;;;;;;7592386;23;20041;-75
2023/08/29 10:28:39;;;;;;;1.75;0.60;;;22.00;44.40;;;;;;7591940;23;20073;-75
2023/08/29 10:31:40;;;;;;;1.85;0.63;;;22.10;44.30;;;;;;7565408;23;20010;-75
2023/08/29 10:34:41;;;;;;;1.67;0.80;;;22.20;44.20;;;;;;7591302;23;20002;-74
2023/08/29 10:37:42;;;;;;;0.60;0.50;;;22.30;43.90;;;;;;7565644;23;20040;-74
2023/08/29 10:40:44;;;;;;;2.00;0.70;;;22.40;43.80;;;;;;7591421;23;20010;-74
2023/08/29 10:43:45;;;;;;;1.65;0.80;;;22.50;43.60;;;;;;7564968;23;20679;-75
2023/08/29 10:46:52;;;;;;;0.40;0.32;;;22.60;43.50;;;;;;7591161;23;20009;-74
2023/08/29 10:50:06;;;;;;;1.23;0.70;;;22.80;43.20;;;;;;7591491;23;20442;-75
2023/08/29 10:53:18;;;;;;;1.05;0.50;;;22.90;42.90;;;;;;7591656;23;20030;-75
2023/08/29 10:56:24;;;;;;;2.05;0.95;;;23.20;42.40;;;;;;7591063;23;20698;-75
2023/08/29 10:59:35;;;;;;;1.35;0.90;;;23.50;41.90;;;;;;7564942;23;20013;-75
2023/08/29 11:02:41;;;;;;;3.03;0.63;;;23.60;41.30;;;;;;7565082;23;20013;-75
2023/08/29 11:05:56;;;;;;;4.13;1.15;;;23.70;41.30;;;;;;7564205;23;20037;-74
2023/08/29 11:09:24;;;;;;;2.90;0.90;;;23.80;41.40;;;;;;7591013;23;20416;-75
2023/08/29 11:12:25;;;;;;;7.22;1.80;;;24.10;41.10;;;;;;7565022;23;20012;-74
2023/08/29 11:15:47;;;;;;;0.85;0.52;;;24.50;40.60;;;;;;7591414;23;20009;-75
2023/08/29 11:18:58;;;;;;;1.30;0.70;;;24.80;40.00;;;;;;7564488;23;20014;-75
2023/08/29 11:21:59;;;;;;;1.17;0.60;;;25.00;39.40;;;;;;7590621;23;20028;-76
2023/08/29 11:25:00;;;;;;;0.73;0.65;;;25.10;39.20;;;;;;7565108;23;20335;-76
2023/08/29 11:28:01;;;;;;;1.13;0.50;;;25.50;39.00;;;;;;7590663;23;20014;-74
2023/08/29 11:31:04;;;;;;;1.42;0.70;;;25.30;38.40;;;;;;7590132;23;20101;-75
2023/08/29 11:34:15;;;;;;;1.00;0.80;;;25.20;38.50;;;;;;7590517;23;20083;-72
2023/08/29 11:37:16;;;;;;;0.82;0.55;;;25.10;38.60;;;;;;7564671;23;20037;-74
2023/08/29 11:40:20;;;;;;;0.50;0.50;;;24.90;38.70;;;;;;7591148;23;20089;-76
2023/08/29 11:43:22;;;;;;;1.77;1.15;;;24.90;38.60;;;;;;7591191;23;20155;-75
2023/08/29 11:46:23;;;;;;;1.10;0.70;;;24.90;38.60;;;;;;7564505;23;20006;-74
2023/08/29 11:49:25;;;;;;;1.27;0.73;;;24.90;38.50;;;;;;7591185;23;20089;-76
2023/08/29 11:52:26;;;;;;;0.60;0.60;;;24.80;38.50;;;;;;7591091;23;20471;-75
2023/08/29 11:55:31;;;;;;;3.88;0.90;;;24.80;38.60;;;;;;7565136;23;20088;-75
2023/08/29 11:58:36;;;;;;;0.55;0.55;;;24.70;38.60;;;;;;7567077;23;20076;-75
2023/08/29 12:01:37;;;;;;;1.25;0.68;;;24.70;38.60;;;;;;7566429;23;20169;-74
2023/08/29 12:04:42;;;;;;;0.60;0.60;;;24.60;38.60;;;;;;7566173;23;20006;-74
2023/08/29 12:07:44;;;;;;;0.35;0.35;;;24.70;38.60;;;;;;7592698;23;20010;-75
2023/08/29 12:10:53;;;;;;;0.80;0.60;;;24.70;38.30;;;;;;7592883;23;20084;-75
2023/08/29 12:14:01;;;;;;;1.17;0.50;;;24.80;38.20;;;;;;7593441;23;20085;-75
2023/08/29 12:17:03;;;;;;;0.57;0.40;;;25.00;37.70;;;;;;7593406;23;20318;-74
2023/08/29 12:20:24;;;;;;;1.10;0.70;;;25.20;37.10;;;;;;7592918;23;20014;-75
2023/08/29 12:23:26;;;;;;;0.60;0.55;;;25.50;37.10;;;;;;7566165;23;20095;-74
2023/08/29 12:26:27;;;;;;;0.32;0.32;;;26.40;36.10;;;;;;7592777;23;20025;-75
2023/08/29 12:29:28;;;;;;;0.45;0.43;;;27.60;34.80;;;;;;7592776;23;20150;-76
2023/08/29 12:32:29;;;;;;;1.20;0.80;;;28.60;33.10;;;;;;7593077;23;20002;-75
2023/08/29 12:35:30;;;;;;;0.55;0.40;;;29.20;32.20;;;;;;7592907;23;20700;-76
2023/08/29 12:38:31;;;;;;;0.73;0.38;;;29.60;31.20;;;;;;7592841;23;20014;-75
2023/08/29 12:41:32;;;;;;;9.10;0.68;;;29.80;30.80;;;;;;7566537;23;20010;-77
2023/08/29 12:44:33;;;;;;;0.45;0.45;;;30.20;30.70;;;;;;7566451;23;20037;-76
2023/08/29 12:47:34;;;;;;;0.40;0.40;;;30.90;29.50;;;;;;7592749;23;20077;-75
2023/08/29 12:50:35;;;;;;;1.02;0.65;;;31.40;29.20;;;;;;7542149;23;20018;-76
2023/08/29 12:53:36;;;;;;;12.43;0.60;;;31.70;28.70;;;;;;7592870;23;20428;-75
2023/08/29 12:56:37;;;;;;;0.40;0.40;;;31.60;28.30;;;;;;7566605;23;20100;-75
2023/08/29 12:59:37;;;;;;;1.25;0.65;;;31.00;28.30;;;;;;7566767;23;20028;-76
2023/08/29 13:02:38;;;;;;;0.90;0.65;;;30.30;28.90;;;;;;7567092;23;20376;-75
2023/08/29 13:05:39;;;;;;;0.40;0.30;;;30.40;29.20;;;;;;7564844;23;20022;-77
2023/08/29 13:08:40;;;;;;;1.17;0.50;;;31.40;28.20;;;;;;7592413;23;20014;-74
2023/08/29 13:11:41;;;;;;;0.45;0.45;;;32.10;27.40;;;;;;7591694;23;20404;-73
2023/08/29 13:14:41;;;;;;;0.40;0.40;;;32.60;26.90;;;;;;7592066;23;20017;-76
2023/08/29 13:17:42;;;;;;;1.38;0.70;;;33.00;26.10;;;;;;7591862;23;20021;-75
2023/08/29 13:20:43;;;;;;;1.50;0.70;;;33.50;25.60;;;;;;7565635;23;20135;-74
2023/08/29 13:23:44;;;;;;;0.50;0.43;;;34.20;24.90;;;;;;7591853;23;20092;-72
2023/08/29 13:26:45;;;;;;;1.45;0.60;;;34.80;24.30;;;;;;7591797;23;20030;-75
2023/08/29 13:29:46;;;;;;;1.63;0.40;;;34.60;24.10;;;;;;7591610;23;20088;-76
2023/08/29 13:32:48;;;;;;;0.70;0.50;;;33.80;24.30;;;;;;7592139;23;20010;-75
2023/08/29 13:35:49;;;;;;;0.93;0.60;;;32.70;25.60;;;;;;7592180;23;20005;-74
2023/08/29 13:38:50;;;;;;;2.05;0.70;;;31.50;26.20;;;;;;7592502;23;20093;-75
2023/08/29 13:41:50;;;;;;;1.33;0.60;;;30.60;27.10;;;;;;7565100;23;20021;-74
2023/08/29 13:44:58;;;;;;;1.00;0.57;;;29.70;27.70;;;;;;7591208;23;20017;-76
2023/08/29 13:47:59;;;;;;;1.58;0.40;;;28.90;28.50;;;;;;7591790;23;20050;-73
2023/08/29 13:50:59;;;;;;;0.57;0.57;;;28.80;28.70;;;;;;7591161;23;20359;-75
2023/08/29 13:54:00;;;;;;;0.50;0.50;;;29.30;28.20;;;;;;7591664;23;20101;-75
2023/08/29 13:57:01;;;;;;;0.60;0.50;;;29.60;27.80;;;;;;7591323;23;20013;-76
2023/08/29 14:00:07;;;;;;;0.47;0.40;;;29.60;27.80;;;;;;7590981;23;20020;-75
2023/08/29 14:03:13;;;;;;;0.52;0.52;;;30.20;27.50;;;;;;7566180;23;20404;-75
2023/08/29 14:06:14;;;;;;;0.65;0.40;;;31.30;26.70;;;;;;7590136;23;20108;-76
2023/08/29 14:09:15;;;;;;;0.60;0.60;;;32.20;25.60;;;;;;7541141;23;20053;-74
2023/08/29 14:12:16;;;;;;;1.67;0.82;;;32.40;25.20;;;;;;7564870;23;20138;-77
2023/08/29 14:15:16;;;;;;;0.65;0.52;;;31.80;25.60;;;;;;7591458;23;20006;-72
2023/08/29 14:18:17;;;;;;;0.70;0.60;;;30.90;25.80;;;;;;7591396;23;20032;-74
2023/08/29 14:21:18;;;;;;;0.52;0.52;;;30.00;26.60;;;;;;7564901;23;20018;-75
2023/08/29 14:24:19;;;;;;;0.52;0.43;;;29.20;27.40;;;;;;7564613;23;20017;-73
2023/08/29 14:27:20;;;;;;;0.60;0.60;;;28.50;28.00;;;;;;7565341;23;20017;-73
2023/08/29 14:30:21;;;;;;;0.52;0.50;;;27.80;28.80;;;;;;7590750;23;20018;-74
2023/08/29 14:33:21;;;;;;;1.05;0.55;;;27.20;29.30;;;;;;7591253;23;20006;-75
2023/08/29 14:36:22;;;;;;;0.60;0.60;;;26.80;29.90;;;;;;7590196;23;20009;-74
2023/08/29 14:39:23;;;;;;;2.08;0.70;;;26.60;30.40;;;;;;7564125;23;20351;-75
2023/08/29 14:42:25;;;;;;;0.60;0.60;;;26.30;30.80;;;;;;7590534;23;20068;-75
2023/08/29 14:45:25;;;;;;;1.30;0.80;;;26.10;31.40;;;;;;7540297;23;20506;-72
2023/08/29 14:48:26;;;;;;;0.98;0.80;;;25.90;32.10;;;;;;7590535;23;20021;-76
2023/08/29 14:51:27;;;;;;;2.25;0.57;;;25.70;32.60;;;;;;7564115;23;20050;-76
2023/08/29 14:54:28;;;;;;;0.35;0.35;;;25.60;32.90;;;;;;7590295;23;20391;-73
2023/08/29 14:57:29;;;;;;;1.55;0.50;;;25.60;33.00;;;;;;7590327;23;20285;-73
2023/08/29 15:00:30;;;;;;;1.02;0.60;;;25.60;33.30;;;;;;7589798;23;20076;-74
2023/08/29 15:03:31;;;;;;;1.08;0.63;;;25.60;33.50;;;;;;7563363;23;20021;-74
2023/08/29 15:06:32;;;;;;;0.63;0.50;;;25.70;34.20;;;;;;7563579;23;20539;-75
2023/08/29 15:09:33;;;;;;;1.05;0.95;;;25.90;33.60;;;;;;7563218;23;20080;-75
2023/08/29 15:12:34;;;;;;;1.27;0.80;;;26.20;33.40;;;;;;7540219;23;20091;-75
2023/08/29 15:15:37;;;;;;;0.52;0.50;;;26.50;33.00;;;;;;7590738;23;20426;-75
2023/08/29 15:18:38;;;;;;;1.45;0.80;;;26.60;32.70;;;;;;7591271;23;20660;-74
2023/08/29 15:21:39;;;;;;;1.42;0.63;;;26.70;32.70;;;;;;7564941;23;20025;-74
2023/08/29 15:24:39;;;;;;;2.92;0.45;;;26.70;32.60;;;;;;7564696;23;20266;-72
2023/08/29 15:27:40;;;;;;;0.65;0.60;;;26.70;32.60;;;;;;7590835;23;20010;-75
2023/08/29 15:30:41;;;;;;;1.08;0.57;;;26.70;32.80;;;;;;7565689;23;20424;-75
2023/08/29 15:33:44;;;;;;;1.02;0.80;;;26.80;32.90;;;;;;7593905;23;20006;-73
2023/08/29 15:36:44;;;;;;;1.35;0.60;;;26.80;32.70;;;;;;7567541;23;20491;-73
2023/08/29 15:39:46;;;;;;;0.52;0.52;;;26.80;32.40;;;;;;7567589;23;20014;-71
2023/08/29 15:42:47;;;;;;;0.60;0.50;;;26.70;32.10;;;;;;7567103;23;20005;-74
2023/08/29 15:45:49;;;;;;;0.63;0.50;;;26.60;31.20;;;;;;7593343;23;20110;-74
2023/08/29 15:48:49;;;;;;;0.75;0.50;;;26.40;30.80;;;;;;7593745;23;20800;-74